createdAt,value
2023-02-16T00:00:24.116Z,62.00
2023-02-16T00:03:18.422Z,59.70
2023-02-16T00:05:46.752Z,60.40
2023-02-16T00:08:14.420Z,60.20
2023-02-16T00:10:42.348Z,61.30
2023-02-16T00:13:42.986Z,61.90
2023-02-16T00:16:16.143Z,59.00
2023-02-16T00:18:44.364Z,60.90
2023-02-16T00:21:12.105Z,61.00
2023-02-16T00:23:40.186Z,59.10
2023-02-16T00:26:19.994Z,60.10
2023-02-16T00:28:50.354Z,61.10
2023-02-16T00:31:20.461Z,58.60
2023-02-16T00:33:48.950Z,61.50
2023-02-16T00:36:21.403Z,61.00
2023-02-16T00:38:49.266Z,59.80
2023-02-16T00:41:38.140Z,58.60
2023-02-16T00:44:17.969Z,58.30
2023-02-16T00:46:46.409Z,61.10
2023-02-16T00:49:19.012Z,58.90
2023-02-16T00:51:49.553Z,58.60
2023-02-16T00:54:17.514Z,60.80
2023-02-16T00:56:45.389Z,58.50
2023-02-16T00:59:18.004Z,59.50
2023-02-16T01:01:46.059Z,58.90
2023-02-16T01:04:20.612Z,58.80
2023-02-16T01:07:07.136Z,59.80
2023-02-16T01:09:54.389Z,60.10
2023-02-16T01:12:22.712Z,59.50
2023-02-16T01:14:54.808Z,59.30
2023-02-16T01:17:24.725Z,58.30
2023-02-16T01:19:54.461Z,57.80
2023-02-16T01:22:22.219Z,57.30
2023-02-16T01:24:49.895Z,56.00
2023-02-16T01:27:18.967Z,56.80
2023-02-16T01:29:46.622Z,57.40
2023-02-16T01:32:16.632Z,57.60
2023-02-16T01:34:44.439Z,58.00
2023-02-16T01:37:15.003Z,57.90
2023-02-16T01:39:44.478Z,55.10
2023-02-16T01:42:20.167Z,55.80
2023-02-16T01:45:03.873Z,53.40
2023-02-16T01:47:38.393Z,53.70
2023-02-16T01:50:28.823Z,53.60
2023-02-16T01:53:22.761Z,55.50
2023-02-16T01:55:56.376Z,54.60
2023-02-16T01:58:35.841Z,54.50
2023-02-16T02:01:05.149Z,56.80
2023-02-16T02:03:55.612Z,57.40
2023-02-16T02:06:29.275Z,55.10
2023-02-16T02:09:05.366Z,54.40
2023-02-16T02:11:49.351Z,55.30
2023-02-16T02:14:24.839Z,55.10
2023-02-16T02:16:58.510Z,55.20
2023-02-16T02:19:26.585Z,54.30
2023-02-16T02:22:57.937Z,53.70
2023-02-16T02:25:53.416Z,54.00
2023-02-16T02:28:27.415Z,55.60
2023-02-16T02:31:05.048Z,53.70
2023-02-16T02:33:53.083Z,55.70
2023-02-16T02:36:27.632Z,57.80
2023-02-16T02:39:22.691Z,57.00
2023-02-16T02:42:06.320Z,58.20
2023-02-16T02:44:48.598Z,59.50
2023-02-16T02:47:16.636Z,59.80
2023-02-16T02:49:54.658Z,57.90
2023-02-16T02:52:22.955Z,57.00
2023-02-16T02:55:09.828Z,54.70
2023-02-16T02:58:00.832Z,55.30
2023-02-16T03:00:43.746Z,54.60
2023-02-16T03:03:27.686Z,55.30
2023-02-16T03:05:59.658Z,53.30
2023-02-16T03:08:29.889Z,54.80
2023-02-16T03:11:20.413Z,53.30
2023-02-16T03:13:52.768Z,52.90
2023-02-16T03:16:25.336Z,54.60
2023-02-16T03:19:12.184Z,54.10
2023-02-16T03:21:59.660Z,55.00
2023-02-16T03:24:48.717Z,54.30
2023-02-16T03:27:38.742Z,54.80
2023-02-16T03:30:09.465Z,54.90
2023-02-16T03:32:38.190Z,55.20
2023-02-16T03:35:06.526Z,55.60
2023-02-16T03:37:34.518Z,54.50
2023-02-16T03:40:20.921Z,53.30
2023-02-16T03:42:50.133Z,53.60
2023-02-16T03:45:19.138Z,53.90
2023-02-16T03:47:46.716Z,54.70
2023-02-16T03:50:14.883Z,55.50
2023-02-16T03:52:42.553Z,54.30
2023-02-16T03:55:10.129Z,53.10
2023-02-16T03:57:37.703Z,53.50
2023-02-16T04:00:06.230Z,55.00
2023-02-16T04:02:40.721Z,53.40
2023-02-16T04:05:08.550Z,55.10
2023-02-16T04:07:36.185Z,53.70
2023-02-16T04:10:04.087Z,53.80
2023-02-16T04:12:37.640Z,55.30
2023-02-16T04:15:08.388Z,53.80
2023-02-16T04:17:36.446Z,53.70
2023-02-16T04:20:06.013Z,52.60
2023-02-16T04:22:33.620Z,54.70
2023-02-16T04:25:01.362Z,55.90
2023-02-16T04:27:29.102Z,53.30
2023-02-16T04:29:56.865Z,55.50
2023-02-16T04:32:24.558Z,56.10
2023-02-16T04:34:52.191Z,54.60
2023-02-16T04:37:19.887Z,54.10
2023-02-16T04:39:47.504Z,55.30
2023-02-16T04:42:15.174Z,54.20
2023-02-16T04:44:43.726Z,54.80
2023-02-16T04:47:11.671Z,55.20
2023-02-16T04:49:39.282Z,53.50
2023-02-16T04:52:06.921Z,54.00
2023-02-16T04:54:34.617Z,55.90
2023-02-16T04:57:02.305Z,55.10
2023-02-16T04:59:29.971Z,55.80
2023-02-16T05:01:58.641Z,52.90
2023-02-16T05:04:26.325Z,55.70
2023-02-16T05:06:54.064Z,59.90
2023-02-16T05:09:21.854Z,54.40
2023-02-16T05:12:08.613Z,56.20
2023-02-16T05:14:42.374Z,53.00
2023-02-16T05:17:17.996Z,55.40
2023-02-16T05:19:48.670Z,55.70
2023-02-16T05:22:16.897Z,56.00
2023-02-16T05:24:44.892Z,57.30
2023-02-16T05:27:19.144Z,54.60
2023-02-16T05:29:46.737Z,56.90
2023-02-16T05:32:14.491Z,54.80
2023-02-16T05:34:44.454Z,57.00
2023-02-16T05:37:13.634Z,54.30
2023-02-16T05:39:41.536Z,54.70
2023-02-16T05:42:09.369Z,56.90
2023-02-16T05:44:37.540Z,54.30
2023-02-16T05:47:05.489Z,53.40
2023-02-16T05:49:33.120Z,53.20
2023-02-16T05:52:00.701Z,55.00
2023-02-16T05:54:28.419Z,49.90
2023-02-16T05:56:56.252Z,52.10
2023-02-16T05:59:24.038Z,52.00
2023-02-16T06:01:52.599Z,52.70
2023-02-16T06:04:21.078Z,50.10
2023-02-16T06:06:48.898Z,50.60
2023-02-16T06:09:16.849Z,50.80
2023-02-16T06:11:44.490Z,49.20
2023-02-16T06:14:17.985Z,48.60
2023-02-16T06:16:47.962Z,50.50
2023-02-16T06:19:17.890Z,49.90
2023-02-16T06:21:45.707Z,50.70
2023-02-16T06:24:14.082Z,50.30
2023-02-16T06:26:42.159Z,52.30
2023-02-16T06:29:10.371Z,50.00
2023-02-16T06:31:38.130Z,49.30
2023-02-16T06:34:06.163Z,51.40
2023-02-16T06:36:34.240Z,50.80
2023-02-16T06:39:01.940Z,50.60
2023-02-16T06:41:35.554Z,50.50
2023-02-16T06:44:06.344Z,50.80
2023-02-16T06:46:34.135Z,51.50
2023-02-16T06:49:02.313Z,51.30
2023-02-16T06:51:30.185Z,49.10
2023-02-16T06:53:58.056Z,51.20
2023-02-16T06:56:25.757Z,54.00
2023-02-16T06:58:53.381Z,60.00
2023-02-16T07:01:25.625Z,57.30
2023-02-16T07:03:54.594Z,51.10
2023-02-16T07:06:24.477Z,49.60
2023-02-16T07:08:52.809Z,48.20
2023-02-16T07:11:21.042Z,47.90
2023-02-16T07:13:48.782Z,46.60
2023-02-16T07:16:16.547Z,47.40
2023-02-16T07:18:45.004Z,46.80
2023-02-16T07:21:12.927Z,46.70
2023-02-16T07:23:40.686Z,45.10
2023-02-16T07:26:08.615Z,46.30
2023-02-16T07:28:36.259Z,45.80
2023-02-16T07:31:12.491Z,46.80
2023-02-16T07:33:40.918Z,46.10
2023-02-16T07:36:09.847Z,45.90
2023-02-16T07:38:38.605Z,44.00
2023-02-16T07:41:09.258Z,44.10
2023-02-16T07:43:39.066Z,45.00
2023-02-16T07:46:06.849Z,44.20
2023-02-16T07:48:35.076Z,43.80
2023-02-16T07:51:03.255Z,43.20
2023-02-16T07:53:31.163Z,43.00
2023-02-16T07:55:58.754Z,42.10
2023-02-16T07:58:29.234Z,42.50
2023-02-16T08:01:06.198Z,42.40
2023-02-16T08:03:34.187Z,42.30
2023-02-16T08:06:02.948Z,42.10
2023-02-16T08:08:31.758Z,41.30
2023-02-16T08:10:59.520Z,43.50
2023-02-16T08:13:27.188Z,41.10
2023-02-16T08:15:54.785Z,43.60
2023-02-16T08:18:22.412Z,43.30
2023-02-16T08:21:03.308Z,44.60
2023-02-16T08:23:31.961Z,44.10
2023-02-16T08:25:59.755Z,40.70
2023-02-16T08:28:28.725Z,41.20
2023-02-16T08:30:57.011Z,41.60
2023-02-16T08:33:25.095Z,41.10
2023-02-16T08:35:53.226Z,39.70
2023-02-16T08:38:20.944Z,39.70
2023-02-16T08:40:50.163Z,40.60
2023-02-16T08:43:17.866Z,39.30
2023-02-16T08:45:49.038Z,40.50
2023-02-16T08:48:17.815Z,42.10
2023-02-16T08:50:47.200Z,39.90
2023-02-16T08:53:15.377Z,41.10
2023-02-16T08:55:43.031Z,41.00
2023-02-16T08:58:10.625Z,41.00
2023-02-16T09:00:38.974Z,41.00
2023-02-16T09:03:07.053Z,40.50
2023-02-16T09:05:35.319Z,40.70
2023-02-16T09:08:03.408Z,39.80
2023-02-16T09:10:31.052Z,41.00
2023-02-16T09:12:58.716Z,40.10
2023-02-16T09:15:26.299Z,39.40
2023-02-16T09:17:53.908Z,41.20
2023-02-16T09:20:21.555Z,39.90
2023-02-16T09:22:49.229Z,41.00
2023-02-16T09:25:17.099Z,41.40
2023-02-16T09:27:45.770Z,40.70
2023-02-16T09:30:14.106Z,40.40
2023-02-16T09:32:42.520Z,40.80
2023-02-16T09:35:10.613Z,42.10
2023-02-16T09:37:38.235Z,40.50
2023-02-16T09:40:07.369Z,40.10
2023-02-16T09:42:45.156Z,40.70
2023-02-16T09:45:15.645Z,40.40
2023-02-16T09:47:45.812Z,40.50
2023-02-16T09:50:52.640Z,40.60
2023-02-16T09:53:41.065Z,42.70
2023-02-16T09:56:32.824Z,40.40
2023-02-16T09:59:06.734Z,39.60
2023-02-16T10:01:52.617Z,38.80
2023-02-16T10:04:46.217Z,38.10
2023-02-16T10:07:32.414Z,37.60
2023-02-16T10:10:01.176Z,36.70
2023-02-16T10:12:34.314Z,38.20
2023-02-16T10:15:14.594Z,37.20
2023-02-16T10:17:46.459Z,37.50
2023-02-16T10:20:41.190Z,35.50
2023-02-16T10:23:18.394Z,36.60
2023-02-16T10:26:24.516Z,36.20
2023-02-16T10:28:55.449Z,34.40
2023-02-16T10:31:39.251Z,35.10
2023-02-16T10:34:29.009Z,35.20
2023-02-16T10:37:15.602Z,34.60
2023-02-16T10:39:49.788Z,34.20
2023-02-16T10:42:27.980Z,35.10
2023-02-16T10:45:02.174Z,36.30
2023-02-16T10:47:34.256Z,35.00
2023-02-16T10:50:03.152Z,34.30
2023-02-16T10:52:34.529Z,35.10
2023-02-16T10:55:02.371Z,35.20
2023-02-16T10:57:31.623Z,38.90
2023-02-16T11:00:02.212Z,35.50
2023-02-16T11:02:37.192Z,35.90
2023-02-16T11:05:29.482Z,38.60
2023-02-16T11:08:01.612Z,39.90
2023-02-16T11:10:38.671Z,39.30
2023-02-16T11:13:07.978Z,35.80
2023-02-16T11:15:37.535Z,35.90
2023-02-16T11:18:11.464Z,36.60
2023-02-16T11:20:42.157Z,38.20
2023-02-16T11:23:27.894Z,34.60
2023-02-16T11:26:25.518Z,35.70
2023-02-16T11:28:53.288Z,35.10
2023-02-16T11:31:31.004Z,36.90
2023-02-16T11:34:03.310Z,35.90
2023-02-16T11:36:43.323Z,34.70
2023-02-16T11:39:14.000Z,34.90
2023-02-16T11:41:56.178Z,36.00
2023-02-16T11:44:30.562Z,37.20
2023-02-16T11:47:00.094Z,36.20
2023-02-16T11:49:30.121Z,36.20
2023-02-16T11:51:58.617Z,36.40
2023-02-16T11:54:27.663Z,36.60
2023-02-16T11:57:31.087Z,36.30
2023-02-16T12:00:00.345Z,36.30
2023-02-16T12:02:30.986Z,36.10
2023-02-16T12:05:43.903Z,34.90
2023-02-16T12:08:38.704Z,35.50
2023-02-16T12:11:25.435Z,37.10
2023-02-16T12:14:06.773Z,33.30
2023-02-16T12:17:04.589Z,34.30
2023-02-16T12:19:44.430Z,32.80
2023-02-16T12:22:14.804Z,33.00
2023-02-16T12:25:24.366Z,34.60
2023-02-16T12:28:06.496Z,32.70
2023-02-16T12:30:52.774Z,33.60
2023-02-16T12:33:30.459Z,33.20
2023-02-16T12:36:07.207Z,33.90
2023-02-16T12:38:40.825Z,34.40
2023-02-16T12:41:16.634Z,33.70
2023-02-16T12:43:51.253Z,35.20
2023-02-16T12:46:25.986Z,34.50
2023-02-16T12:49:16.404Z,34.00
2023-02-16T12:51:58.942Z,34.10
2023-02-16T12:54:41.318Z,33.70
2023-02-16T12:57:13.415Z,33.80
2023-02-16T12:59:47.206Z,34.40
2023-02-16T13:02:23.291Z,33.60
2023-02-16T13:04:58.671Z,32.90
2023-02-16T13:07:36.189Z,34.10
2023-02-16T13:10:23.931Z,33.60
2023-02-16T13:13:00.197Z,36.30
2023-02-16T13:15:30.733Z,35.90
2023-02-16T13:18:04.563Z,36.90
2023-02-16T13:20:32.471Z,35.10
2023-02-16T13:23:03.124Z,33.60
2023-02-16T13:25:39.922Z,35.20
2023-02-16T13:28:22.521Z,34.80
2023-02-16T13:30:59.632Z,34.70
2023-02-16T13:33:53.585Z,35.00
2023-02-16T13:36:36.006Z,34.20
2023-02-16T13:39:41.643Z,33.20
2023-02-16T13:42:29.806Z,33.20
2023-02-16T13:45:00.803Z,35.40
2023-02-16T13:47:34.264Z,32.80
2023-02-16T13:50:05.807Z,34.00
2023-02-16T13:52:39.724Z,33.30
2023-02-16T13:55:32.057Z,32.60
2023-02-16T13:58:12.099Z,32.50
2023-02-16T14:00:45.238Z,32.20
2023-02-16T14:03:22.122Z,32.60
2023-02-16T14:05:54.684Z,33.00
2023-02-16T14:08:29.859Z,32.60
2023-02-16T14:11:03.042Z,33.00
2023-02-16T14:13:36.915Z,35.70
2023-02-16T14:16:09.097Z,33.80
2023-02-16T14:18:47.408Z,34.00
2023-02-16T14:21:33.218Z,41.50
2023-02-16T14:24:03.308Z,51.80
2023-02-16T14:26:31.903Z,50.30
2023-02-16T14:29:18.001Z,48.70
2023-02-16T14:31:52.463Z,51.90
2023-02-16T14:34:28.711Z,53.00
2023-02-16T14:37:27.768Z,42.80
2023-02-16T14:40:07.757Z,39.10
2023-02-16T14:42:36.146Z,44.80
2023-02-16T14:45:06.840Z,48.30
2023-02-16T14:47:52.682Z,40.70
2023-02-16T14:50:44.556Z,41.00
2023-02-16T14:53:44.347Z,41.10
2023-02-16T14:56:20.084Z,49.90
2023-02-16T14:58:55.995Z,43.50
2023-02-16T15:01:24.076Z,36.90
2023-02-16T15:03:54.632Z,45.10
2023-02-16T15:06:38.920Z,37.90
2023-02-16T15:09:25.785Z,54.40
2023-02-16T15:12:15.000Z,43.90
2023-02-16T15:14:45.737Z,42.20
2023-02-16T15:17:20.485Z,43.80
2023-02-16T15:19:48.267Z,40.20
2023-02-16T15:22:22.070Z,63.50
2023-02-16T15:24:59.951Z,56.70
2023-02-16T15:27:29.076Z,52.20
2023-02-16T15:30:28.328Z,45.80
2023-02-16T15:33:01.863Z,48.80
2023-02-16T15:35:36.903Z,49.20
2023-02-16T15:38:16.874Z,51.30
2023-02-16T15:40:45.407Z,55.10
2023-02-16T15:43:32.002Z,91.40
2023-02-16T15:46:03.268Z,47.20
2023-02-16T15:48:33.862Z,42.00
2023-02-16T15:51:06.878Z,41.00
2023-02-16T15:53:48.179Z,48.70
2023-02-16T15:56:48.965Z,43.80
2023-02-16T15:59:22.476Z,44.10
2023-02-16T16:01:59.292Z,74.50
2023-02-16T16:04:28.307Z,139.90
2023-02-16T16:06:56.350Z,50.40
2023-02-16T16:09:33.963Z,54.50
2023-02-16T16:12:05.756Z,48.30
2023-02-16T16:14:36.389Z,52.10
2023-02-16T16:17:04.933Z,51.70
2023-02-16T16:19:35.728Z,59.90
2023-02-16T16:22:11.742Z,65.10
2023-02-16T16:24:39.610Z,65.00
2023-02-16T16:27:12.188Z,60.20
2023-02-16T16:29:45.662Z,60.30
2023-02-16T16:32:21.248Z,49.90
2023-02-16T16:34:49.573Z,46.60
2023-02-16T16:37:36.980Z,46.40
2023-02-16T16:40:22.272Z,49.10
2023-02-16T16:43:01.989Z,65.20
2023-02-16T16:45:42.519Z,76.90
2023-02-16T16:48:37.227Z,47.60
2023-02-16T16:51:13.940Z,42.50
2023-02-16T16:53:57.477Z,47.30
2023-02-16T16:56:25.584Z,47.80
2023-02-16T16:58:56.870Z,59.60
2023-02-16T17:01:27.007Z,48.00
2023-02-16T17:03:55.026Z,48.60
2023-02-16T17:06:23.988Z,45.60
2023-02-16T17:08:52.122Z,48.50
2023-02-16T17:11:28.548Z,41.40
2023-02-16T17:13:58.046Z,47.20
2023-02-16T17:16:31.320Z,41.60
2023-02-16T17:18:59.022Z,45.00
2023-02-16T17:21:26.691Z,45.70
2023-02-16T17:23:54.303Z,43.50
2023-02-16T17:26:22.722Z,47.30
2023-02-16T17:28:50.780Z,58.10
2023-02-16T17:31:18.481Z,47.40
2023-02-16T17:33:46.300Z,59.20
2023-02-16T17:36:15.470Z,48.60
2023-02-16T17:38:43.810Z,48.60
2023-02-16T17:41:20.208Z,51.20
2023-02-16T17:43:48.395Z,51.00
2023-02-16T17:46:17.113Z,54.50
2023-02-16T17:48:45.291Z,53.80
2023-02-16T17:51:18.318Z,52.90
2023-02-16T17:53:46.049Z,63.60
2023-02-16T17:56:15.298Z,64.70
2023-02-16T17:58:43.155Z,58.40
2023-02-16T18:01:13.825Z,64.60
2023-02-16T18:03:41.543Z,63.40
2023-02-16T18:06:13.670Z,52.60
2023-02-16T18:08:41.976Z,63.90
2023-02-16T18:11:10.258Z,71.00
2023-02-16T18:13:38.064Z,71.40
2023-02-16T18:16:07.556Z,86.40
2023-02-16T18:18:39.125Z,73.20
2023-02-16T18:21:07.253Z,66.00
2023-02-16T18:23:35.026Z,59.70
2023-02-16T18:26:03.843Z,58.60
2023-02-16T18:28:33.805Z,56.00
2023-02-16T18:31:02.127Z,62.50
2023-02-16T18:33:29.964Z,57.40
2023-02-16T18:35:57.669Z,59.80
2023-02-16T18:38:25.810Z,57.40
2023-02-16T18:40:54.483Z,57.90
2023-02-16T18:43:22.698Z,57.90
2023-02-16T18:45:50.492Z,57.70
2023-02-16T18:48:18.380Z,62.20
2023-02-16T18:50:46.106Z,62.20
2023-02-16T18:53:13.742Z,62.80
2023-02-16T18:55:41.438Z,57.80
2023-02-16T18:58:11.064Z,58.30
2023-02-16T19:00:39.124Z,55.60
2023-02-16T19:03:07.497Z,56.40
2023-02-16T19:05:35.936Z,59.10
2023-02-16T19:08:03.704Z,58.20
2023-02-16T19:10:31.432Z,70.50
2023-02-16T19:13:01.141Z,63.20
2023-02-16T19:15:29.746Z,65.70
2023-02-16T19:17:57.379Z,64.60
2023-02-16T19:20:25.562Z,61.90
2023-02-16T19:22:53.215Z,61.20
2023-02-16T19:25:21.374Z,61.90
2023-02-16T19:27:49.107Z,57.40
2023-02-16T19:30:16.964Z,74.90
2023-02-16T19:32:44.747Z,76.40
2023-02-16T19:35:12.379Z,63.00
2023-02-16T19:37:40.043Z,56.20
2023-02-16T19:40:10.034Z,72.10
2023-02-16T19:42:38.303Z,59.30
2023-02-16T19:45:06.379Z,72.50
2023-02-16T19:47:34.068Z,65.90
2023-02-16T19:50:02.018Z,61.80
2023-02-16T19:52:29.648Z,60.10
2023-02-16T19:54:57.333Z,57.50
2023-02-16T19:57:25.022Z,71.20
2023-02-16T19:59:52.655Z,54.90
2023-02-16T20:02:20.443Z,55.00
2023-02-16T20:04:48.265Z,63.10
2023-02-16T20:07:16.218Z,56.80
2023-02-16T20:09:43.850Z,61.50
2023-02-16T20:12:12.672Z,58.50
2023-02-16T20:14:40.329Z,57.00
2023-02-16T20:17:08.001Z,56.40
2023-02-16T20:19:35.600Z,55.40
2023-02-16T20:22:03.275Z,57.50
2023-02-16T20:24:30.861Z,60.80
2023-02-16T20:26:58.668Z,58.20
2023-02-16T20:29:26.388Z,63.50
2023-02-16T20:31:55.993Z,94.80
2023-02-16T20:34:26.275Z,83.70
2023-02-16T20:36:54.179Z,87.70
2023-02-16T20:39:23.001Z,77.40
2023-02-16T20:41:51.022Z,63.60
2023-02-16T20:44:18.911Z,70.40
2023-02-16T20:46:46.609Z,61.10
2023-02-16T20:49:16.292Z,57.40
2023-02-16T20:51:44.216Z,60.80
2023-02-16T20:54:12.449Z,55.20
2023-02-16T20:56:40.157Z,55.50
2023-02-16T20:59:08.013Z,57.90
2023-02-16T21:01:43.549Z,57.40
2023-02-16T21:04:11.664Z,74.60
2023-02-16T21:06:39.910Z,78.70
2023-02-16T21:09:08.930Z,91.10
2023-02-16T21:11:37.986Z,77.50
2023-02-16T21:14:07.570Z,70.80
2023-02-16T21:16:35.324Z,78.70
2023-02-16T21:19:07.255Z,75.30
2023-02-16T21:21:40.899Z,70.60
2023-02-16T21:24:08.959Z,64.30
2023-02-16T21:26:36.559Z,93.30
2023-02-16T21:29:04.214Z,134.40
2023-02-16T21:31:31.974Z,85.40
2023-02-16T21:33:59.737Z,61.70
2023-02-16T21:36:27.641Z,57.10
2023-02-16T21:38:55.366Z,58.20
2023-02-16T21:41:25.860Z,53.80
2023-02-16T21:43:58.889Z,57.50
2023-02-16T21:46:34.076Z,56.30
2023-02-16T21:49:01.950Z,53.10
2023-02-16T21:51:32.993Z,58.50
2023-02-16T21:54:01.004Z,76.40
2023-02-16T21:56:33.499Z,59.80
2023-02-16T21:59:01.947Z,57.80
2023-02-16T22:01:32.407Z,62.90
2023-02-16T22:04:01.801Z,57.10
2023-02-16T22:06:35.094Z,56.90
2023-02-16T22:09:06.211Z,59.80
2023-02-16T22:11:33.832Z,60.00
2023-02-16T22:14:02.204Z,59.20
2023-02-16T22:16:31.628Z,59.30
2023-02-16T22:19:01.282Z,64.30
2023-02-16T22:21:30.326Z,70.70
2023-02-16T22:24:00.731Z,62.80
2023-02-16T22:26:31.279Z,58.60
2023-02-16T22:28:59.445Z,59.20
2023-02-16T22:31:28.123Z,60.10
2023-02-16T22:34:03.156Z,61.10
2023-02-16T22:36:31.248Z,56.10
2023-02-16T22:38:59.217Z,57.00
2023-02-16T22:41:27.018Z,54.20
2023-02-16T22:43:55.865Z,54.70
2023-02-16T22:46:24.304Z,57.90
2023-02-16T22:48:52.674Z,58.70
2023-02-16T22:51:21.676Z,51.70
2023-02-16T22:53:49.586Z,52.70
2023-02-16T22:56:18.511Z,56.10
2023-02-16T22:58:47.167Z,51.70
2023-02-16T23:01:18.303Z,52.80
2023-02-16T23:03:47.930Z,54.10
2023-02-16T23:06:18.623Z,52.10
2023-02-16T23:08:47.624Z,51.40
2023-02-16T23:11:15.221Z,53.70
2023-02-16T23:13:42.893Z,53.80
2023-02-16T23:16:19.288Z,52.40
2023-02-16T23:18:47.637Z,53.30
2023-02-16T23:21:22.740Z,53.60
2023-02-16T23:23:51.663Z,53.10
2023-02-16T23:26:21.678Z,52.30
2023-02-16T23:28:51.770Z,51.10
2023-02-16T23:31:20.134Z,52.10
2023-02-16T23:33:48.176Z,50.70
2023-02-16T23:36:15.836Z,49.30
2023-02-16T23:38:43.440Z,50.70
2023-02-16T23:41:16.068Z,52.10
2023-02-16T23:43:43.812Z,50.10
2023-02-16T23:46:11.630Z,51.80
2023-02-16T23:48:39.413Z,53.40
2023-02-16T23:51:07.057Z,52.00
2023-02-16T23:53:35.019Z,53.80
2023-02-16T23:56:14.177Z,51.20
2023-02-16T23:58:44.929Z,52.10
